Decoded Metar for KM25 ( in ) (IATA:) | Meteo·Mobile Aviation Weather
aviador You're here:

KM25 Decoded Metar

in
Report Time2018-09-18 23:35:00
UTC Time2018-09-18 23:45:39
Flight Rules vfr VFR
Wind260° at 03 kt
W.Rank260° ranks 25
Current wind is below 260° avg. (6.6)
Visibility9999 m
Phenomena:N/A
Clouds:Broken 110 Hf
Expected CloudBase > 5,600 ft AGL from Temp-Dew spread
Ceiling11,000 ft
Temp32°C
Dew Point18°C (43% RH)
Heat Index32.8°C
QNH1014 hPa
Raw Report
METAR KM25 182335Z AUTO 26003KT 10SM BKN110 32/18 A2993 RMK AO2 PWINO=

Extra information for KM25:More info

Social comments